Time;durP1;ratioP1;P1;durP2;ratioP2;P2;SDS_P1;SDS_P2;PMS_P1;PMS_P2;Temp;Humidity;BMP_temperature;BMP_pressure;BME280_temperature;BME280_humidity;BME280_pressure;Samples;Min_cycle;Max_cycle;Signal;HPM_P1;HPM_P2
2023/08/15 00:00:39;;;;;;;4.45;1.35;;;17.40;62.70;;;;;;5061885;28;19919;-72
2023/08/15 00:03:05;;;;;;;2.53;1.40;;;17.40;62.60;;;;;;5058978;28;20050;-70
2023/08/15 00:05:31;;;;;;;3.40;1.20;;;17.30;62.50;;;;;;5053927;28;20520;-73
2023/08/15 00:08:00;;;;;;;1.20;1.10;;;17.30;62.60;;;;;;5056347;28;20536;-72
2023/08/15 00:10:26;;;;;;;2.88;1.30;;;17.30;62.70;;;;;;5052623;28;20075;-74
2023/08/15 00:12:52;;;;;;;1.75;0.88;;;17.30;62.80;;;;;;5058717;28;20040;-71
2023/08/15 00:15:18;;;;;;;2.60;1.20;;;17.20;63.20;;;;;;5059865;28;20039;-73
2023/08/15 00:17:44;;;;;;;2.08;1.20;;;17.20;62.80;;;;;;5059455;28;20508;-70
2023/08/15 00:20:11;;;;;;;3.60;1.23;;;17.20;62.90;;;;;;5058394;28;20114;-71
2023/08/15 00:22:37;;;;;;;2.88;1.10;;;17.20;63.00;;;;;;5055916;28;20824;-73
2023/08/15 00:25:03;;;;;;;4.38;1.13;;;17.10;62.90;;;;;;5059155;28;20104;-70
2023/08/15 00:27:30;;;;;;;1.90;0.93;;;17.10;63.00;;;;;;5060152;28;20105;-71
2023/08/15 00:29:56;;;;;;;3.00;1.30;;;17.10;63.10;;;;;;5058648;28;20045;-70
2023/08/15 00:32:22;;;;;;;1.83;1.05;;;17.10;63.20;;;;;;5061432;28;20036;-70
2023/08/15 00:34:49;;;;;;;1.98;0.90;;;17.00;63.10;;;;;;5062137;28;20485;-70
2023/08/15 00:37:15;;;;;;;2.58;1.45;;;17.10;63.30;;;;;;5060246;28;20024;-70
2023/08/15 00:39:41;;;;;;;4.03;1.60;;;17.00;63.30;;;;;;5061691;28;20102;-70
2023/08/15 00:42:08;;;;;;;4.32;1.70;;;17.00;63.30;;;;;;5061475;28;20028;-71
2023/08/15 00:44:37;;;;;;;3.60;1.33;;;17.00;63.40;;;;;;5058573;28;20036;-70
2023/08/15 00:47:03;;;;;;;3.50;1.13;;;17.00;63.50;;;;;;5068127;28;20028;-70
2023/08/15 00:49:29;;;;;;;3.38;1.23;;;17.10;63.70;;;;;;5062091;28;20029;-71
2023/08/15 00:51:55;;;;;;;4.03;1.33;;;17.00;63.60;;;;;;5060058;28;20025;-74
2023/08/15 00:54:21;;;;;;;2.50;1.30;;;17.00;63.70;;;;;;5064641;28;20029;-70
2023/08/15 00:56:47;;;;;;;1.60;1.30;;;17.00;63.80;;;;;;5055483;28;20473;-71
2023/08/15 00:59:13;;;;;;;3.90;1.33;;;17.00;64.40;;;;;;5058076;28;20029;-71
2023/08/15 01:01:43;;;;;;;2.15;1.10;;;17.00;63.90;;;;;;5062706;28;20139;-70
2023/08/15 01:04:10;;;;;;;2.38;1.30;;;17.00;64.50;;;;;;5059461;28;20021;-70
2023/08/15 01:06:37;;;;;;;2.88;1.50;;;17.00;64.10;;;;;;5056169;28;20105;-71
2023/08/15 01:09:03;;;;;;;3.95;1.55;;;17.00;64.10;;;;;;5055180;28;20035;-70
2023/08/15 01:11:43;;;;;;;4.03;1.55;;;17.00;64.10;;;;;;5056298;28;20024;-71
2023/08/15 01:14:14;;;;;;;3.22;1.13;;;17.00;64.20;;;;;;5057651;28;20048;-72
2023/08/15 01:16:45;;;;;;;2.55;1.70;;;17.00;64.20;;;;;;5056178;28;20041;-72
2023/08/15 01:19:39;;;;;;;1.77;1.08;;;17.00;64.30;;;;;;5058675;28;20028;-73
2023/08/15 01:22:20;;;;;;;2.03;1.48;;;17.00;64.50;;;;;;5043658;28;20497;-70
2023/08/15 01:24:47;;;;;;;2.28;1.20;;;17.00;64.40;;;;;;5063861;28;20071;-70
2023/08/15 01:27:13;;;;;;;2.58;1.10;;;17.10;64.60;;;;;;5061302;28;20028;-70
2023/08/15 01:29:39;;;;;;;3.33;1.35;;;17.10;64.70;;;;;;5063983;28;20043;-71
2023/08/15 01:32:23;;;;;;;2.75;0.90;;;17.10;64.80;;;;;;5064326;28;20028;-71
2023/08/15 01:35:01;;;;;;;3.88;1.20;;;17.10;65.00;;;;;;5063632;28;20048;-70
2023/08/15 01:37:30;;;;;;;4.40;2.30;;;17.10;65.10;;;;;;5059420;28;20042;-73
2023/08/15 01:39:57;;;;;;;3.80;1.27;;;17.10;65.00;;;;;;5060300;28;20083;-70
2023/08/15 01:42:25;;;;;;;2.22;1.20;;;17.10;65.10;;;;;;5064574;28;20063;-70
2023/08/15 01:44:53;;;;;;;5.60;2.42;;;17.10;65.20;;;;;;5061358;28;20040;-70
2023/08/15 01:47:21;;;;;;;1.98;1.10;;;17.20;65.50;;;;;;5065680;28;20052;-69
2023/08/15 01:49:47;;;;;;;2.03;1.30;;;17.20;65.50;;;;;;5064889;28;20106;-69
2023/08/15 01:52:13;;;;;;;2.38;1.10;;;17.20;65.60;;;;;;5064758;28;20082;-71
2023/08/15 01:54:40;;;;;;;2.90;1.30;;;17.10;65.40;;;;;;5061384;28;20028;-70
2023/08/15 01:57:06;;;;;;;2.30;1.08;;;17.20;65.70;;;;;;5070384;28;20071;-69
2023/08/15 01:59:32;;;;;;;2.40;1.02;;;17.20;65.80;;;;;;5065232;28;20064;-69
2023/08/15 02:01:58;;;;;;;2.92;1.27;;;17.10;65.70;;;;;;5063745;28;20483;-70
2023/08/15 02:04:24;;;;;;;2.83;1.20;;;17.10;65.70;;;;;;5064367;28;20121;-71
2023/08/15 02:06:50;;;;;;;2.03;1.15;;;17.20;65.90;;;;;;5064942;28;20685;-71
2023/08/15 02:09:17;;;;;;;2.65;0.98;;;17.20;66.00;;;;;;5061161;28;20039;-70
2023/08/15 02:11:43;;;;;;;4.85;1.83;;;17.20;66.00;;;;;;5060938;28;20109;-73
2023/08/15 02:14:10;;;;;;;1.77;1.02;;;17.20;66.10;;;;;;5062520;28;20067;-71
2023/08/15 02:16:36;;;;;;;3.53;1.45;;;17.20;66.10;;;;;;5065107;28;20037;-69
2023/08/15 02:19:02;;;;;;;3.30;1.50;;;17.20;66.20;;;;;;5066789;28;20681;-69
2023/08/15 02:21:28;;;;;;;3.00;1.48;;;17.20;66.30;;;;;;5063333;28;20854;-69
2023/08/15 02:23:54;;;;;;;3.05;1.35;;;17.20;66.30;;;;;;5067971;28;20044;-70
2023/08/15 02:26:20;;;;;;;2.53;1.00;;;17.20;66.40;;;;;;5067840;28;20663;-69
2023/08/15 02:28:46;;;;;;;3.65;1.40;;;17.20;66.40;;;;;;5048386;28;20145;-70
2023/08/15 02:31:12;;;;;;;2.75;1.30;;;17.20;66.40;;;;;;5066327;28;20060;-73
2023/08/15 02:33:38;;;;;;;4.15;1.70;;;17.20;66.50;;;;;;5066805;28;20032;-72
2023/08/15 02:36:06;;;;;;;2.63;1.30;;;17.20;66.50;;;;;;5065406;28;20647;-72
2023/08/15 02:38:33;;;;;;;3.25;1.02;;;17.20;66.60;;;;;;5069207;28;20213;-73
2023/08/15 02:40:59;;;;;;;2.13;1.20;;;17.20;66.60;;;;;;5074246;28;20590;-72
2023/08/15 02:43:25;;;;;;;1.98;1.15;;;17.20;66.60;;;;;;5071172;28;20040;-71
2023/08/15 02:45:52;;;;;;;3.97;1.38;;;17.20;66.70;;;;;;5068259;28;20036;-70
2023/08/15 02:48:18;;;;;;;3.85;1.45;;;17.20;66.80;;;;;;5065884;28;20128;-70
2023/08/15 02:50:44;;;;;;;1.42;1.30;;;17.30;67.00;;;;;;5080126;28;20032;-71
2023/08/15 02:53:10;;;;;;;2.55;1.20;;;17.30;67.00;;;;;;5063062;28;20425;-69
2023/08/15 02:55:37;;;;;;;1.88;1.10;;;17.30;67.10;;;;;;5061964;28;20085;-70
2023/08/15 02:58:03;;;;;;;4.45;1.33;;;17.20;66.90;;;;;;5061392;28;20119;-71
2023/08/15 03:00:28;;;;;;;3.08;1.23;;;17.20;66.90;;;;;;5062133;28;20039;-71
2023/08/15 03:02:55;;;;;;;3.10;1.13;;;17.30;67.20;;;;;;5060856;28;20036;-71
2023/08/15 03:05:21;;;;;;;3.50;1.30;;;17.20;67.10;;;;;;5061837;28;20023;-73
2023/08/15 03:07:47;;;;;;;2.03;1.10;;;17.20;67.10;;;;;;5057213;28;20029;-73
2023/08/15 03:10:13;;;;;;;3.53;1.10;;;17.20;67.20;;;;;;5056943;28;20720;-71
2023/08/15 03:12:43;;;;;;;3.38;1.10;;;17.20;67.20;;;;;;5072399;28;20581;-72
2023/08/15 03:15:09;;;;;;;3.08;1.30;;;17.20;67.30;;;;;;5053533;28;20039;-71
2023/08/15 03:17:36;;;;;;;1.98;1.30;;;17.10;67.10;;;;;;5063679;28;20121;-71
2023/08/15 03:20:05;;;;;;;2.15;1.40;;;17.20;67.30;;;;;;5068087;28;20044;-71
2023/08/15 03:22:31;;;;;;;3.47;1.63;;;17.10;67.30;;;;;;5047176;28;20741;-73
2023/08/15 03:24:58;;;;;;;2.13;1.50;;;17.10;67.30;;;;;;5063138;28;20032;-72
2023/08/15 03:27:24;;;;;;;2.47;1.13;;;17.10;67.30;;;;;;5070627;28;20506;-72
2023/08/15 03:29:50;;;;;;;2.53;1.02;;;17.10;67.30;;;;;;5064122;28;20043;-72
2023/08/15 03:32:16;;;;;;;2.42;1.20;;;17.10;67.40;;;;;;5073748;28;20024;-69
2023/08/15 03:34:43;;;;;;;5.18;1.40;;;17.10;67.50;;;;;;5065173;28;20132;-69
2023/08/15 03:37:10;;;;;;;2.67;1.20;;;17.00;67.30;;;;;;5065840;28;20024;-71
2023/08/15 03:39:37;;;;;;;3.70;1.23;;;17.00;67.30;;;;;;5063376;28;20063;-69
2023/08/15 03:42:03;;;;;;;2.80;1.23;;;17.00;67.40;;;;;;5068981;28;20060;-69
2023/08/15 03:44:29;;;;;;;5.22;1.20;;;17.00;67.40;;;;;;5065853;28;20040;-72
2023/08/15 03:46:56;;;;;;;4.35;1.17;;;17.00;67.50;;;;;;5058039;28;20382;-72
2023/08/15 03:49:22;;;;;;;1.60;1.38;;;17.00;67.50;;;;;;5056690;28;20036;-73
2023/08/15 03:51:48;;;;;;;2.28;1.20;;;17.00;67.50;;;;;;5042990;28;20043;-73
2023/08/15 03:54:16;;;;;;;2.00;1.17;;;17.00;67.60;;;;;;5059889;28;20078;-73
2023/08/15 03:56:43;;;;;;;4.78;1.80;;;16.90;67.40;;;;;;5045563;28;20036;-72
2023/08/15 03:59:09;;;;;;;2.92;1.23;;;16.90;67.50;;;;;;5053890;28;20040;-70
2023/08/15 04:01:35;;;;;;;2.70;1.30;;;16.90;67.50;;;;;;5071601;28;20016;-72
2023/08/15 04:04:03;;;;;;;2.65;1.00;;;16.90;67.50;;;;;;5060371;28;20653;-73
2023/08/15 04:06:34;;;;;;;2.63;1.27;;;16.90;67.60;;;;;;5066918;28;20119;-72
2023/08/15 04:09:00;;;;;;;1.35;1.17;;;16.80;67.40;;;;;;5056787;28;20131;-70
2023/08/15 04:11:25;;;;;;;2.78;1.10;;;16.80;67.50;;;;;;5064311;28;20024;-71
2023/08/15 04:13:51;;;;;;;2.88;1.13;;;16.80;67.50;;;;;;5044460;28;20549;-71
2023/08/15 04:16:18;;;;;;;1.95;1.60;;;16.80;67.60;;;;;;5055802;28;20115;-72
2023/08/15 04:18:44;;;;;;;4.28;1.20;;;16.80;67.70;;;;;;5065590;28;20028;-71
2023/08/15 04:21:12;;;;;;;2.67;1.73;;;16.80;67.70;;;;;;5063872;28;20029;-69
2023/08/15 04:23:38;;;;;;;1.73;1.10;;;16.80;67.80;;;;;;5061131;28;20745;-70
2023/08/15 04:26:04;;;;;;;2.38;1.33;;;16.80;67.80;;;;;;5061218;28;20132;-69
2023/08/15 04:28:30;;;;;;;4.60;1.42;;;16.80;67.90;;;;;;5067222;28;20032;-70
2023/08/15 04:30:56;;;;;;;4.55;1.88;;;16.80;68.50;;;;;;5049393;28;20506;-70
2023/08/15 04:33:22;;;;;;;2.10;1.17;;;16.80;67.90;;;;;;5064454;28;20056;-70
2023/08/15 04:35:48;;;;;;;2.72;1.30;;;16.80;67.90;;;;;;5066626;28;20048;-70
2023/08/15 04:38:14;;;;;;;1.67;1.33;;;16.80;68.00;;;;;;5058571;28;20724;-69
2023/08/15 04:40:43;;;;;;;2.38;1.30;;;16.80;68.00;;;;;;5060434;28;20492;-69
2023/08/15 04:43:13;;;;;;;2.63;1.23;;;16.80;68.10;;;;;;5067263;28;20571;-70
2023/08/15 04:45:43;;;;;;;1.63;1.13;;;16.80;68.10;;;;;;5063340;28;20037;-69
2023/08/15 04:48:11;;;;;;;2.70;1.50;;;16.80;68.10;;;;;;5055534;28;20040;-70
2023/08/15 04:50:38;;;;;;;3.50;1.40;;;16.80;68.10;;;;;;5066343;28;20039;-69
2023/08/15 04:53:05;;;;;;;3.38;2.15;;;16.70;67.90;;;;;;5062573;28;20493;-75
2023/08/15 04:55:32;;;;;;;3.22;1.42;;;16.70;68.00;;;;;;5069649;28;20043;-73
2023/08/15 04:57:58;;;;;;;1.85;0.98;;;16.70;68.00;;;;;;5065049;28;20462;-72
2023/08/15 05:00:25;;;;;;;2.47;1.40;;;16.70;68.10;;;;;;5071124;28;20016;-72
2023/08/15 05:02:51;;;;;;;1.73;1.20;;;16.70;68.10;;;;;;5059815;28;20128;-72
2023/08/15 05:05:16;;;;;;;5.20;1.88;;;16.70;68.10;;;;;;5064412;28;20727;-72
2023/08/15 05:07:43;;;;;;;5.13;1.92;;;16.70;68.20;;;;;;5056853;28;20655;-71
2023/08/15 05:10:10;;;;;;;3.83;1.52;;;16.70;68.20;;;;;;5060992;28;20032;-71
2023/08/15 05:12:39;;;;;;;2.78;1.35;;;16.80;68.40;;;;;;5058116;28;20047;-72
2023/08/15 05:15:07;;;;;;;2.70;1.88;;;16.70;68.20;;;;;;5057731;28;20418;-72
2023/08/15 05:17:35;;;;;;;2.85;1.38;;;16.80;68.40;;;;;;5066153;28;20565;-71
2023/08/15 05:20:04;;;;;;;2.33;1.30;;;16.70;68.40;;;;;;5056206;28;20394;-69
2023/08/15 05:22:32;;;;;;;3.05;1.85;;;16.80;69.20;;;;;;5056901;28;20041;-71
2023/08/15 05:24:59;;;;;;;3.70;1.50;;;16.90;69.90;;;;;;5055691;28;20032;-72
2023/08/15 05:27:26;;;;;;;5.53;2.00;;;16.90;70.30;;;;;;5064659;28;20059;-71
2023/08/15 05:29:53;;;;;;;4.20;2.20;;;17.00;70.70;;;;;;5057943;28;20033;-70
2023/08/15 05:32:19;;;;;;;4.10;1.98;;;17.10;71.20;;;;;;5065989;28;20448;-70
2023/08/15 05:34:45;;;;;;;6.32;2.45;;;17.20;71.70;;;;;;5066391;28;20484;-71
2023/08/15 05:37:11;;;;;;;4.43;2.28;;;17.30;72.10;;;;;;5059128;28;20546;-70
2023/08/15 05:39:38;;;;;;;3.47;2.55;;;17.30;72.30;;;;;;5057920;28;20130;-69
2023/08/15 05:42:04;;;;;;;3.38;1.25;;;17.40;72.70;;;;;;5053219;28;20036;-70
2023/08/15 05:44:31;;;;;;;2.85;1.35;;;17.50;72.90;;;;;;5065701;28;20138;-70
2023/08/15 05:46:58;;;;;;;5.35;2.25;;;17.60;73.00;;;;;;5060555;28;20110;-70
2023/08/15 05:49:24;;;;;;;5.28;1.70;;;17.70;73.10;;;;;;5049764;28;20055;-70
2023/08/15 05:51:51;;;;;;;2.22;1.40;;;17.70;73.00;;;;;;5062578;28;20138;-70
2023/08/15 05:54:17;;;;;;;4.40;1.60;;;17.70;73.00;;;;;;5064661;28;20040;-70
2023/08/15 05:56:44;;;;;;;2.55;1.25;;;17.70;73.00;;;;;;5062119;28;20539;-70
2023/08/15 05:59:10;;;;;;;3.55;1.42;;;17.80;73.20;;;;;;5058230;28;20458;-69
2023/08/15 06:01:36;;;;;;;2.92;1.60;;;17.80;73.10;;;;;;5062207;28;20029;-70
2023/08/15 06:04:03;;;;;;;1.77;1.52;;;17.70;72.80;;;;;;5053003;28;20400;-70
2023/08/15 06:06:29;;;;;;;4.40;1.50;;;17.80;72.90;;;;;;5054242;28;20033;-69
2023/08/15 06:08:58;;;;;;;4.50;2.30;;;17.80;72.90;;;;;;5059346;28;20032;-69
2023/08/15 06:11:25;;;;;;;2.63;1.67;;;17.80;72.90;;;;;;5058402;28;20329;-70
2023/08/15 06:13:51;;;;;;;4.75;2.17;;;17.80;72.80;;;;;;5060248;28;20040;-70
2023/08/15 06:16:17;;;;;;;2.75;1.92;;;17.80;72.80;;;;;;5059887;28;20028;-70
2023/08/15 06:18:43;;;;;;;3.13;1.30;;;17.90;72.90;;;;;;5054622;28;20125;-69
2023/08/15 06:21:10;;;;;;;3.00;1.30;;;17.90;72.80;;;;;;5062965;28;20527;-70
2023/08/15 06:23:36;;;;;;;3.28;1.60;;;18.00;72.70;;;;;;5062245;28;20036;-70
2023/08/15 06:26:02;;;;;;;3.17;1.73;;;18.10;72.70;;;;;;5067657;28;20036;-69
2023/08/15 06:28:29;;;;;;;1.92;1.45;;;18.10;72.50;;;;;;5067653;28;20032;-69
2023/08/15 06:30:55;;;;;;;4.25;1.95;;;18.20;72.50;;;;;;5063227;28;20479;-69
2023/08/15 06:33:22;;;;;;;4.65;1.50;;;18.30;72.60;;;;;;5058929;28;20647;-70
2023/08/15 06:35:49;;;;;;;4.82;1.73;;;18.30;72.30;;;;;;5057751;28;20139;-70
2023/08/15 06:38:15;;;;;;;4.05;1.88;;;18.40;72.90;;;;;;5061336;28;20095;-69
2023/08/15 06:40:42;;;;;;;2.28;1.20;;;18.50;72.30;;;;;;5060136;28;20101;-70
2023/08/15 06:43:09;;;;;;;2.83;1.65;;;18.50;72.10;;;;;;5057471;28;20040;-70
2023/08/15 06:45:38;;;;;;;2.03;1.40;;;18.60;72.10;;;;;;5065056;28;20044;-71
2023/08/15 06:48:08;;;;;;;4.38;1.70;;;18.60;72.00;;;;;;5064848;28;20029;-71
2023/08/15 06:50:34;;;;;;;2.22;1.45;;;18.70;72.00;;;;;;5062735;28;20041;-71
2023/08/15 06:53:01;;;;;;;2.92;1.10;;;18.70;71.90;;;;;;5060149;28;20040;-70
2023/08/15 06:55:30;;;;;;;3.90;1.48;;;18.80;71.90;;;;;;5060300;28;20040;-70
2023/08/15 06:57:58;;;;;;;1.42;1.13;;;18.80;71.80;;;;;;5059580;28;20047;-70
2023/08/15 07:00:25;;;;;;;2.10;0.98;;;19.00;71.80;;;;;;5061270;28;20031;-70
2023/08/15 07:02:51;;;;;;;3.53;1.38;;;19.10;72.30;;;;;;5058193;28;20040;-70
2023/08/15 07:05:24;;;;;;;4.40;1.27;;;19.20;71.60;;;;;;5055015;28;20115;-71
2023/08/15 07:07:50;;;;;;;2.28;1.45;;;19.30;71.50;;;;;;5056044;28;20036;-71
2023/08/15 07:10:17;;;;;;;2.50;1.27;;;19.50;71.40;;;;;;5057645;28;20506;-72
2023/08/15 07:12:45;;;;;;;2.92;1.30;;;19.90;71.70;;;;;;5061917;28;20040;-71
2023/08/15 07:15:11;;;;;;;1.98;1.15;;;20.30;71.20;;;;;;5045777;28;20025;-72
2023/08/15 07:17:41;;;;;;;1.98;1.40;;;20.60;70.50;;;;;;5054824;28;20082;-71
2023/08/15 07:20:14;;;;;;;1.60;1.00;;;20.70;69.80;;;;;;5051675;28;20082;-72
2023/08/15 07:22:41;;;;;;;2.75;1.30;;;20.80;69.60;;;;;;5052008;28;20041;-72
2023/08/15 07:25:11;;;;;;;2.65;1.13;;;20.80;69.40;;;;;;5051164;28;20042;-72
2023/08/15 07:27:37;;;;;;;4.25;1.25;;;20.80;69.30;;;;;;5059788;28;20028;-71
2023/08/15 07:30:06;;;;;;;4.85;0.90;;;20.70;69.20;;;;;;5057926;28;20048;-71
2023/08/15 07:32:38;;;;;;;3.80;1.38;;;20.70;69.30;;;;;;5056426;28;20377;-71
2023/08/15 07:35:06;;;;;;;3.92;1.33;;;20.70;69.30;;;;;;5058009;28;20048;-71
2023/08/15 07:37:41;;;;;;;2.65;1.25;;;20.60;69.10;;;;;;5111780;27;20444;-88
2023/08/15 07:40:09;;;;;;;2.25;0.88;;;20.70;69.30;;;;;;5115228;27;20054;-88
2023/08/15 07:42:36;;;;;;;5.82;1.13;;;20.70;69.20;;;;;;5114849;27;20071;-91
2023/08/15 07:45:03;;;;;;;3.33;1.30;;;20.70;69.00;;;;;;5114308;27;20028;-93
2023/08/15 07:47:34;;;;;;;4.47;1.35;;;20.80;69.00;;;;;;5115032;27;20456;-88
2023/08/15 07:50:17;;;;;;;3.10;1.40;;;20.90;69.00;;;;;;5117195;27;20715;-88
2023/08/15 07:52:43;;;;;;;1.25;1.00;;;21.00;69.00;;;;;;5116332;27;20374;-85
2023/08/15 07:55:10;;;;;;;1.60;1.10;;;21.10;68.90;;;;;;5113987;27;20860;-89
2023/08/15 07:57:37;;;;;;;2.25;0.90;;;21.20;68.90;;;;;;5114151;27;20122;-90
2023/08/15 08:00:04;;;;;;;3.15;0.98;;;21.30;68.80;;;;;;5111900;27;20027;-90
2023/08/15 08:02:43;;;;;;;6.20;1.35;;;21.30;68.50;;;;;;5115401;27;20092;-90
2023/08/15 08:05:11;;;;;;;3.30;1.15;;;21.40;68.40;;;;;;5113239;27;20027;-89
2023/08/15 08:07:41;;;;;;;2.58;1.13;;;21.40;68.30;;;;;;5099064;28;20375;-87
2023/08/15 08:10:08;;;;;;;4.28;1.20;;;21.50;68.30;;;;;;5092583;28;20060;-89
2023/08/15 08:12:35;;;;;;;1.95;1.10;;;21.50;68.20;;;;;;5100855;28;20523;-88
2023/08/15 08:15:02;;;;;;;2.67;1.20;;;21.60;68.20;;;;;;5070748;28;20394;-90
2023/08/15 08:17:32;;;;;;;4.47;2.13;;;21.80;68.10;;;;;;5082034;28;20057;-88
2023/08/15 08:19:59;;;;;;;3.90;1.10;;;21.90;68.00;;;;;;5096604;28;20040;-87
2023/08/15 08:22:25;;;;;;;2.53;1.15;;;22.00;67.90;;;;;;5095201;28;20035;-90
2023/08/15 08:24:53;;;;;;;4.43;1.85;;;22.10;67.70;;;;;;5079328;28;20073;-89
2023/08/15 08:27:19;;;;;;;5.65;1.63;;;22.30;67.70;;;;;;5094016;28;20059;-89
2023/08/15 08:29:45;;;;;;;4.13;1.45;;;22.40;67.50;;;;;;5093365;28;20431;-88
2023/08/15 08:32:11;;;;;;;6.25;1.58;;;22.60;67.40;;;;;;5079176;28;20094;-90
2023/08/15 08:34:38;;;;;;;2.38;0.98;;;22.80;67.40;;;;;;5095722;28;20032;-88
2023/08/15 08:37:05;;;;;;;2.15;1.05;;;22.90;67.10;;;;;;5097633;28;20048;-89
2023/08/15 08:39:31;;;;;;;3.72;1.38;;;23.00;66.90;;;;;;5079197;28;20378;-90
2023/08/15 08:41:58;;;;;;;3.78;1.30;;;23.00;66.70;;;;;;5097384;28;20024;-88
2023/08/15 08:44:26;;;;;;;3.35;1.08;;;23.10;66.70;;;;;;5080539;28;20032;-87
2023/08/15 08:46:53;;;;;;;3.78;1.20;;;23.10;66.70;;;;;;5091805;28;20077;-86
2023/08/15 08:49:20;;;;;;;2.92;1.25;;;23.10;66.70;;;;;;5091194;28;20053;-87
2023/08/15 08:51:48;;;;;;;2.25;1.25;;;23.10;66.60;;;;;;5091664;28;20017;-88
2023/08/15 08:54:14;;;;;;;2.08;1.00;;;23.20;66.60;;;;;;5108526;28;20042;-83
2023/08/15 08:56:44;;;;;;;2.90;1.33;;;23.20;66.40;;;;;;5091459;28;20040;-85
2023/08/15 08:59:15;;;;;;;3.03;1.20;;;23.30;66.40;;;;;;5090658;28;20340;-89
2023/08/15 09:01:42;;;;;;;2.33;1.30;;;23.30;66.30;;;;;;5091534;28;20085;-89
2023/08/15 09:04:09;;;;;;;3.58;1.38;;;23.40;66.40;;;;;;5079016;28;20120;-87
2023/08/15 09:06:35;;;;;;;2.53;1.10;;;23.40;66.30;;;;;;5086238;28;20511;-88
2023/08/15 09:09:02;;;;;;;3.42;1.55;;;23.50;66.40;;;;;;5079233;28;20031;-90
2023/08/15 09:11:36;;;;;;;3.85;1.45;;;23.60;66.40;;;;;;5075838;28;20121;-88
2023/08/15 09:14:03;;;;;;;3.47;1.63;;;23.60;66.20;;;;;;5085458;28;20150;-89
2023/08/15 09:16:31;;;;;;;2.50;1.50;;;23.80;66.50;;;;;;5079202;28;20056;-89
2023/08/15 09:19:02;;;;;;;2.60;1.30;;;23.90;66.50;;;;;;5077373;28;20070;-87
2023/08/15 09:21:29;;;;;;;3.03;1.77;;;24.10;66.40;;;;;;5083078;28;20086;-85
2023/08/15 09:23:59;;;;;;;4.22;1.50;;;24.30;66.30;;;;;;5077091;28;20033;-86
2023/08/15 09:26:31;;;;;;;5.78;2.08;;;24.50;66.30;;;;;;5089433;28;20056;-87
2023/08/15 09:28:58;;;;;;;2.33;1.48;;;24.60;66.00;;;;;;5084312;28;20055;-88
2023/08/15 09:31:24;;;;;;;3.92;1.40;;;24.80;66.00;;;;;;5088034;28;20027;-86
2023/08/15 09:33:50;;;;;;;3.40;1.63;;;25.00;66.00;;;;;;5082516;28;20093;-86
2023/08/15 09:36:16;;;;;;;2.08;1.65;;;25.20;65.70;;;;;;5085508;28;20102;-89
2023/08/15 09:38:43;;;;;;;2.17;1.77;;;25.40;65.40;;;;;;5078812;28;20036;-84
2023/08/15 09:41:13;;;;;;;4.65;1.63;;;25.50;64.90;;;;;;5083578;28;20023;-85
2023/08/15 09:43:50;;;;;;;4.25;1.73;;;25.60;64.60;;;;;;5079196;28;20283;-85
2023/08/15 09:46:18;;;;;;;3.88;1.33;;;25.70;64.40;;;;;;5071508;28;20040;-87
2023/08/15 09:48:48;;;;;;;2.88;1.50;;;25.70;64.40;;;;;;5078903;28;20885;-85
2023/08/15 09:51:16;;;;;;;3.75;1.35;;;25.60;64.40;;;;;;5086106;28;20172;-84
2023/08/15 09:53:45;;;;;;;3.28;0.95;;;25.50;64.40;;;;;;5078792;28;20503;-85
2023/08/15 09:56:13;;;;;;;3.10;1.35;;;25.50;64.40;;;;;;5075729;28;20040;-90
2023/08/15 09:58:39;;;;;;;6.55;1.77;;;25.50;64.30;;;;;;5081348;28;20119;-88
2023/08/15 10:01:08;;;;;;;3.90;1.42;;;25.60;64.20;;;;;;5087937;28;20152;-89
2023/08/15 10:03:41;;;;;;;4.80;1.58;;;25.60;64.00;;;;;;5079335;28;20466;-90
2023/08/15 10:06:10;;;;;;;3.17;1.27;;;25.70;63.80;;;;;;5088265;28;20028;-91
2023/08/15 10:08:42;;;;;;;3.05;1.45;;;25.70;63.70;;;;;;5076043;28;20036;-91
2023/08/15 10:11:10;;;;;;;2.97;1.55;;;25.80;63.70;;;;;;5083342;28;20043;-90
2023/08/15 10:13:38;;;;;;;4.63;2.08;;;25.80;63.50;;;;;;5083280;28;20035;-88
2023/08/15 10:16:12;;;;;;;3.22;1.17;;;25.90;63.50;;;;;;5079588;28;20032;-89
2023/08/15 10:18:38;;;;;;;1.65;1.02;;;25.90;63.30;;;;;;5080037;28;20027;-88
2023/08/15 10:21:04;;;;;;;3.08;1.00;;;25.90;63.20;;;;;;5086676;28;20044;-86
2023/08/15 10:23:34;;;;;;;2.92;1.17;;;26.00;63.10;;;;;;5083037;28;20138;-88
2023/08/15 10:26:01;;;;;;;5.43;1.42;;;26.00;63.00;;;;;;5066232;28;20020;-88
2023/08/15 10:28:32;;;;;;;2.80;1.05;;;26.00;62.90;;;;;;5072872;28;20032;-86
2023/08/15 10:30:59;;;;;;;3.15;1.77;;;26.00;62.90;;;;;;5084860;28;20036;-87
2023/08/15 10:33:29;;;;;;;1.77;1.30;;;26.00;63.00;;;;;;5084179;28;20038;-87
2023/08/15 10:35:55;;;;;;;3.30;1.30;;;26.00;63.00;;;;;;5083886;28;20109;-87
2023/08/15 10:38:29;;;;;;;3.28;1.20;;;26.00;63.00;;;;;;5079704;28;20044;-86
2023/08/15 10:41:02;;;;;;;4.18;1.60;;;26.00;62.80;;;;;;5074088;28;20032;-86
2023/08/15 10:43:28;;;;;;;2.58;1.05;;;26.00;62.80;;;;;;5082903;28;20030;-86
2023/08/15 10:46:01;;;;;;;3.88;1.67;;;26.10;62.80;;;;;;5091041;28;20379;-87
2023/08/15 10:48:47;;;;;;;4.70;1.40;;;26.20;62.50;;;;;;5093498;28;20064;-89
2023/08/15 10:51:18;;;;;;;2.72;1.40;;;26.40;62.20;;;;;;5087983;28;20380;-86
2023/08/15 10:53:49;;;;;;;3.75;1.38;;;26.50;62.10;;;;;;5077911;28;20040;-87
2023/08/15 10:56:23;;;;;;;2.42;1.20;;;26.70;61.90;;;;;;5080225;28;20036;-87
2023/08/15 10:58:51;;;;;;;3.47;1.52;;;26.80;61.70;;;;;;5080796;28;20048;-87
2023/08/15 11:01:19;;;;;;;3.08;1.50;;;26.80;61.60;;;;;;5081148;28;20036;-86
2023/08/15 11:03:50;;;;;;;3.33;1.27;;;26.80;61.40;;;;;;5070426;28;20228;-85
2023/08/15 11:06:17;;;;;;;3.10;1.52;;;26.90;61.20;;;;;;5078559;28;20084;-85
2023/08/15 11:08:51;;;;;;;3.97;1.67;;;27.00;61.00;;;;;;5074707;28;20030;-86
2023/08/15 11:11:17;;;;;;;2.92;1.40;;;27.10;60.80;;;;;;5078659;28;20092;-89
2023/08/15 11:13:47;;;;;;;2.83;1.23;;;27.20;60.60;;;;;;5079524;28;20054;-85
2023/08/15 11:16:15;;;;;;;3.35;1.30;;;27.30;60.40;;;;;;5072724;28;20390;-89
2023/08/15 11:18:43;;;;;;;3.83;1.63;;;27.40;60.30;;;;;;5085556;28;20176;-88
2023/08/15 11:21:12;;;;;;;4.90;1.63;;;27.50;60.70;;;;;;5076493;28;20031;-86
2023/08/15 11:23:39;;;;;;;3.05;1.10;;;27.60;60.10;;;;;;5071042;28;20039;-83
2023/08/15 11:26:07;;;;;;;3.95;1.50;;;27.70;59.90;;;;;;5083568;28;20039;-83
2023/08/15 11:28:34;;;;;;;3.90;1.08;;;27.80;59.60;;;;;;5072805;28;20122;-82
2023/08/15 11:31:21;;;;;;;1.67;1.23;;;28.00;59.40;;;;;;5080670;28;20275;-84
2023/08/15 11:33:51;;;;;;;4.00;1.40;;;28.20;59.00;;;;;;5060881;28;20032;-87
2023/08/15 11:36:17;;;;;;;4.78;1.52;;;28.40;58.80;;;;;;5082151;28;20047;-86
2023/08/15 11:38:43;;;;;;;1.85;1.10;;;28.60;58.40;;;;;;5077576;28;20040;-87
2023/08/15 11:41:10;;;;;;;2.45;1.42;;;28.70;58.10;;;;;;5081955;28;20095;-89
2023/08/15 11:43:36;;;;;;;1.50;1.08;;;28.90;57.80;;;;;;5075658;28;20044;-89
2023/08/15 11:46:04;;;;;;;3.28;1.02;;;29.10;57.50;;;;;;5069873;28;20576;-87
2023/08/15 11:48:32;;;;;;;2.05;1.30;;;29.20;57.20;;;;;;5076832;28;20111;-86
2023/08/15 11:50:59;;;;;;;2.38;1.08;;;29.20;57.00;;;;;;5085090;28;20035;-87
2023/08/15 11:53:26;;;;;;;2.78;1.38;;;29.10;56.90;;;;;;5059428;28;20067;-85
2023/08/15 11:55:53;;;;;;;3.17;1.15;;;29.10;56.90;;;;;;5081140;28;20785;-87
2023/08/15 11:58:30;;;;;;;1.90;0.82;;;29.00;56.70;;;;;;5076649;28;20036;-88
2023/08/15 12:01:01;;;;;;;1.55;1.00;;;29.00;57.20;;;;;;5057282;28;20327;-87
2023/08/15 12:03:29;;;;;;;1.73;0.95;;;29.10;56.70;;;;;;5082440;28;20722;-87
2023/08/15 12:05:56;;;;;;;3.40;1.30;;;29.10;56.50;;;;;;5076003;28;20043;-88
2023/08/15 12:08:29;;;;;;;2.05;1.20;;;29.10;56.40;;;;;;5076802;28;20738;-86
2023/08/15 12:11:01;;;;;;;2.53;0.90;;;29.20;56.10;;;;;;5076629;28;20035;-87
2023/08/15 12:13:32;;;;;;;4.15;0.95;;;29.20;56.10;;;;;;5072080;28;20023;-87
2023/08/15 12:16:00;;;;;;;2.05;0.75;;;29.20;56.00;;;;;;5073179;28;20501;-88
2023/08/15 12:18:31;;;;;;;2.25;1.13;;;29.20;56.00;;;;;;5073567;28;20020;-88
2023/08/15 12:20:58;;;;;;;1.60;1.10;;;29.20;55.90;;;;;;5059049;28;20059;-88
2023/08/15 12:23:25;;;;;;;1.95;0.88;;;29.20;55.80;;;;;;5076543;28;20491;-86
2023/08/15 12:25:51;;;;;;;1.77;0.90;;;29.30;55.80;;;;;;5084833;28;20123;-88
2023/08/15 12:28:18;;;;;;;1.30;0.90;;;29.40;55.70;;;;;;5091852;28;20004;-88
2023/08/15 12:30:45;;;;;;;2.88;1.15;;;29.40;55.50;;;;;;5104932;28;20050;-87
2023/08/15 12:33:11;;;;;;;1.13;0.80;;;29.50;55.40;;;;;;5109512;28;20100;-85
2023/08/15 12:35:38;;;;;;;0.98;0.80;;;29.50;55.30;;;;;;5109482;28;20051;-83
2023/08/15 12:38:04;;;;;;;1.60;0.90;;;29.50;55.10;;;;;;5104389;28;20031;-87
2023/08/15 12:40:31;;;;;;;0.73;0.68;;;29.60;55.40;;;;;;5085185;28;20488;-87
2023/08/15 12:43:01;;;;;;;4.13;1.33;;;29.70;55.10;;;;;;5081796;28;20518;-87
2023/08/15 12:45:27;;;;;;;1.13;0.90;;;29.70;54.80;;;;;;5077148;28;20678;-86
2023/08/15 12:47:54;;;;;;;1.48;1.02;;;29.70;54.70;;;;;;5084352;28;20037;-87
2023/08/15 12:50:21;;;;;;;1.27;0.70;;;29.70;54.80;;;;;;5080101;28;20063;-85